KHQM/HQM METAR and TAF weather

Enter ICAO airport designator
Station Type Date Time Source
KHQM METAR 2019/10/15 06:53 UTC NOAA

KHQM 150653Z AUTO 10009KT 10SM CLR 09/08 A3000 RMK AO2 SLP164 T00890078


Station Type Date Time Source
KHQM Decoded METAR 2019/10/15 06:53 UTC NOAA

HOQUIAM BOWERMAN AIRPORT, WA, United States (KHQM) 46-58N 123-56W 7M
Oct 15, 2019 - 02:53 AM EDT / 2019.10.15 0653 UTC
Wind: from the E (100 degrees) at 10 MPH (9 KT):0
Visibility: 10 mile(s):0
Sky conditions: clear
Temperature: 48.0 F (8.9 C)
Dew Point: 46.0 F (7.8 C)
Relative Humidity: 92%
Pressure (altimeter): 30 in. Hg (1015 hPa)
ob: KHQM 150653Z AUTO 10009KT 10SM CLR 09/08 A3000 RMK AO2 SLP164 T00890078
cycle: 7

Station Type Date Time Source
KHQM TAF 2019/10/15 06:22 UTC NOAA

TAF KHQM 150520Z 1506/1606 09005KT P6SM BKN200
FM151200 09012KT P6SM OVC120
FM152000 14015G25KT P6SM -RA OVC040

Example: see airport list